sensor_id;sensor_type;location;lat;lon;timestamp;P1;P2;P0
84223;PMS5003;74353;51.208;0.304;2024-01-27T00:00:43;23;19;
84223;PMS5003;74353;51.208;0.304;2024-01-27T00:03:09;18;18;
84223;PMS5003;74353;51.208;0.304;2024-01-27T00:05:35;18;18;
84223;PMS5003;74353;51.208;0.304;2024-01-27T00:08:02;19;19;
84223;PMS5003;74353;51.208;0.304;2024-01-27T00:10:28;21;21;
84223;PMS5003;74353;51.208;0.304;2024-01-27T00:12:56;23;23;
84223;PMS5003;74353;51.208;0.304;2024-01-27T00:15:22;26;24;
84223;PMS5003;74353;51.208;0.304;2024-01-27T00:17:48;21;21;
84223;PMS5003;74353;51.208;0.304;2024-01-27T00:20:16;32;32;
84223;PMS5003;74353;51.208;0.304;2024-01-27T00:22:45;15;15;
84223;PMS5003;74353;51.208;0.304;2024-01-27T00:25:12;21;21;
84223;PMS5003;74353;51.208;0.304;2024-01-27T00:27:37;17;17;
84223;PMS5003;74353;51.208;0.304;2024-01-27T00:30:04;19;19;
84223;PMS5003;74353;51.208;0.304;2024-01-27T00:32:28;31;25;
84223;PMS5003;74353;51.208;0.304;2024-01-27T00:34:53;19;19;
84223;PMS5003;74353;51.208;0.304;2024-01-27T00:37:21;18;18;
84223;PMS5003;74353;51.208;0.304;2024-01-27T00:39:49;15;15;
84223;PMS5003;74353;51.208;0.304;2024-01-27T00:42:16;21;21;
84223;PMS5003;74353;51.208;0.304;2024-01-27T00:44:45;27;27;
84223;PMS5003;74353;51.208;0.304;2024-01-27T00:47:10;23;23;
84223;PMS5003;74353;51.208;0.304;2024-01-27T00:49:36;20;14;
84223;PMS5003;74353;51.208;0.304;2024-01-27T00:52:04;19;13;
84223;PMS5003;74353;51.208;0.304;2024-01-27T00:54:29;17;17;
84223;PMS5003;74353;51.208;0.304;2024-01-27T00:56:54;38;31;
84223;PMS5003;74353;51.208;0.304;2024-01-27T00:59:20;22;22;
84223;PMS5003;74353;51.208;0.304;2024-01-27T01:01:46;16;16;
84223;PMS5003;74353;51.208;0.304;2024-01-27T01:04:11;17;17;
84223;PMS5003;74353;51.208;0.304;2024-01-27T01:06:38;24;24;
84223;PMS5003;74353;51.208;0.304;2024-01-27T01:09:02;22;18;
84223;PMS5003;74353;51.208;0.304;2024-01-27T01:11:28;18;15;
84223;PMS5003;74353;51.208;0.304;2024-01-27T01:13:53;22;20;
84223;PMS5003;74353;51.208;0.304;2024-01-27T01:16:21;9;9;
84223;PMS5003;74353;51.208;0.304;2024-01-27T01:18:46;15;15;
84223;PMS5003;74353;51.208;0.304;2024-01-27T01:21:12;26;23;
84223;PMS5003;74353;51.208;0.304;2024-01-27T01:23:37;24;22;
84223;PMS5003;74353;51.208;0.304;2024-01-27T01:26:02;24;22;
84223;PMS5003;74353;51.208;0.304;2024-01-27T01:28:29;23;20;
84223;PMS5003;74353;51.208;0.304;2024-01-27T01:30:55;21;21;
84223;PMS5003;74353;51.208;0.304;2024-01-27T01:33:20;21;18;
84223;PMS5003;74353;51.208;0.304;2024-01-27T01:35:48;24;24;
84223;PMS5003;74353;51.208;0.304;2024-01-27T01:38:13;22;22;
84223;PMS5003;74353;51.208;0.304;2024-01-27T01:40:42;21;21;
84223;PMS5003;74353;51.208;0.304;2024-01-27T01:43:09;21;18;
84223;PMS5003;74353;51.208;0.304;2024-01-27T01:45:36;13;13;
84223;PMS5003;74353;51.208;0.304;2024-01-27T01:48:04;18;18;
84223;PMS5003;74353;51.208;0.304;2024-01-27T01:50:30;21;21;
84223;PMS5003;74353;51.208;0.304;2024-01-27T01:52:56;17;17;
84223;PMS5003;74353;51.208;0.304;2024-01-27T01:55:24;21;21;
84223;PMS5003;74353;51.208;0.304;2024-01-27T01:57:52;29;29;
84223;PMS5003;74353;51.208;0.304;2024-01-27T02:00:18;17;17;
84223;PMS5003;74353;51.208;0.304;2024-01-27T02:02:45;21;15;
84223;PMS5003;74353;51.208;0.304;2024-01-27T02:05:10;23;23;
84223;PMS5003;74353;51.208;0.304;2024-01-27T02:07:35;22;21;
84223;PMS5003;74353;51.208;0.304;2024-01-27T02:10:02;16;16;
84223;PMS5003;74353;51.208;0.304;2024-01-27T02:12:28;21;21;
84223;PMS5003;74353;51.208;0.304;2024-01-27T02:14:56;27;21;
84223;PMS5003;74353;51.208;0.304;2024-01-27T02:17:22;14;14;
84223;PMS5003;74353;51.208;0.304;2024-01-27T02:19:48;14;14;
84223;PMS5003;74353;51.208;0.304;2024-01-27T02:22:13;17;17;
84223;PMS5003;74353;51.208;0.304;2024-01-27T02:24:48;29;23;
84223;PMS5003;74353;51.208;0.304;2024-01-27T02:27:14;18;18;
84223;PMS5003;74353;51.208;0.304;2024-01-27T02:29:42;26;22;
84223;PMS5003;74353;51.208;0.304;2024-01-27T02:32:10;13;13;
84223;PMS5003;74353;51.208;0.304;2024-01-27T02:34:38;15;15;
84223;PMS5003;74353;51.208;0.304;2024-01-27T02:37:03;8;8;
84223;PMS5003;74353;51.208;0.304;2024-01-27T02:39:30;13;13;
84223;PMS5003;74353;51.208;0.304;2024-01-27T02:41:57;12;12;
84223;PMS5003;74353;51.208;0.304;2024-01-27T02:44:22;16;14;
84223;PMS5003;74353;51.208;0.304;2024-01-27T02:46:48;14;14;
84223;PMS5003;74353;51.208;0.304;2024-01-27T02:49:14;13;7;
84223;PMS5003;74353;51.208;0.304;2024-01-27T02:51:42;13;13;
84223;PMS5003;74353;51.208;0.304;2024-01-27T02:54:09;13;13;
84223;PMS5003;74353;51.208;0.304;2024-01-27T02:56:34;17;17;
84223;PMS5003;74353;51.208;0.304;2024-01-27T02:59:02;8;8;
84223;PMS5003;74353;51.208;0.304;2024-01-27T03:01:30;17;17;
84223;PMS5003;74353;51.208;0.304;2024-01-27T03:03:57;27;27;
84223;PMS5003;74353;51.208;0.304;2024-01-27T03:06:24;29;25;
84223;PMS5003;74353;51.208;0.304;2024-01-27T03:08:50;7;7;
84223;PMS5003;74353;51.208;0.304;2024-01-27T03:11:16;23;20;
84223;PMS5003;74353;51.208;0.304;2024-01-27T03:13:45;26;18;
84223;PMS5003;74353;51.208;0.304;2024-01-27T03:16:11;31;25;
84223;PMS5003;74353;51.208;0.304;2024-01-27T03:18:37;11;11;
84223;PMS5003;74353;51.208;0.304;2024-01-27T03:21:03;17;17;
84223;PMS5003;74353;51.208;0.304;2024-01-27T03:23:28;19;19;
84223;PMS5003;74353;51.208;0.304;2024-01-27T03:25:53;20;20;
84223;PMS5003;74353;51.208;0.304;2024-01-27T03:28:18;29;13;
84223;PMS5003;74353;51.208;0.304;2024-01-27T03:30:43;18;18;
84223;PMS5003;74353;51.208;0.304;2024-01-27T03:33:09;19;19;
84223;PMS5003;74353;51.208;0.304;2024-01-27T03:35:35;13;13;
84223;PMS5003;74353;51.208;0.304;2024-01-27T03:38:00;15;14;
84223;PMS5003;74353;51.208;0.304;2024-01-27T03:40:28;10;10;
84223;PMS5003;74353;51.208;0.304;2024-01-27T03:42:53;17;17;
84223;PMS5003;74353;51.208;0.304;2024-01-27T03:45:18;15;15;
84223;PMS5003;74353;51.208;0.304;2024-01-27T03:47:46;19;19;
84223;PMS5003;74353;51.208;0.304;2024-01-27T03:50:13;23;22;
84223;PMS5003;74353;51.208;0.304;2024-01-27T03:52:39;15;15;
84223;PMS5003;74353;51.208;0.304;2024-01-27T03:55:05;17;15;
84223;PMS5003;74353;51.208;0.304;2024-01-27T03:57:32;14;14;
84223;PMS5003;74353;51.208;0.304;2024-01-27T03:59:58;9;9;
84223;PMS5003;74353;51.208;0.304;2024-01-27T04:02:25;14;14;
84223;PMS5003;74353;51.208;0.304;2024-01-27T04:04:50;16;16;
84223;PMS5003;74353;51.208;0.304;2024-01-27T04:07:16;18;18;
84223;PMS5003;74353;51.208;0.304;2024-01-27T04:09:45;11;11;
84223;PMS5003;74353;51.208;0.304;2024-01-27T04:12:12;9;9;
84223;PMS5003;74353;51.208;0.304;2024-01-27T04:14:40;10;10;
84223;PMS5003;74353;51.208;0.304;2024-01-27T04:17:07;14;14;
84223;PMS5003;74353;51.208;0.304;2024-01-27T04:19:34;23;19;
84223;PMS5003;74353;51.208;0.304;2024-01-27T04:22:02;25;22;
84223;PMS5003;74353;51.208;0.304;2024-01-27T04:24:30;20;20;
84223;PMS5003;74353;51.208;0.304;2024-01-27T04:26:59;21;17;
84223;PMS5003;74353;51.208;0.304;2024-01-27T04:29:22;31;24;
84223;PMS5003;74353;51.208;0.304;2024-01-27T04:31:49;14;14;
84223;PMS5003;74353;51.208;0.304;2024-01-27T04:34:16;15;15;
84223;PMS5003;74353;51.208;0.304;2024-01-27T04:36:43;12;12;
84223;PMS5003;74353;51.208;0.304;2024-01-27T04:39:09;25;17;
84223;PMS5003;74353;51.208;0.304;2024-01-27T04:41:34;29;21;
84223;PMS5003;74353;51.208;0.304;2024-01-27T04:44:00;33;30;
84223;PMS5003;74353;51.208;0.304;2024-01-27T04:46:26;13;13;
84223;PMS5003;74353;51.208;0.304;2024-01-27T04:48:53;41;35;
84223;PMS5003;74353;51.208;0.304;2024-01-27T04:51:18;28;23;
84223;PMS5003;74353;51.208;0.304;2024-01-27T04:53:46;18;18;
84223;PMS5003;74353;51.208;0.304;2024-01-27T04:56:14;18;13;
84223;PMS5003;74353;51.208;0.304;2024-01-27T04:58:41;19;11;
84223;PMS5003;74353;51.208;0.304;2024-01-27T05:01:08;30;26;
84223;PMS5003;74353;51.208;0.304;2024-01-27T05:03:33;19;19;
84223;PMS5003;74353;51.208;0.304;2024-01-27T05:06:07;17;17;
84223;PMS5003;74353;51.208;0.304;2024-01-27T05:08:33;23;23;
84223;PMS5003;74353;51.208;0.304;2024-01-27T05:10:59;16;16;
84223;PMS5003;74353;51.208;0.304;2024-01-27T05:13:25;27;24;
84223;PMS5003;74353;51.208;0.304;2024-01-27T05:15:52;19;19;
84223;PMS5003;74353;51.208;0.304;2024-01-27T05:18:18;19;19;
84223;PMS5003;74353;51.208;0.304;2024-01-27T05:20:43;28;26;
84223;PMS5003;74353;51.208;0.304;2024-01-27T05:23:13;29;26;
84223;PMS5003;74353;51.208;0.304;2024-01-27T05:25:43;26;24;
84223;PMS5003;74353;51.208;0.304;2024-01-27T05:28:10;17;17;
84223;PMS5003;74353;51.208;0.304;2024-01-27T05:30:37;27;27;
84223;PMS5003;74353;51.208;0.304;2024-01-27T05:33:04;25;19;
84223;PMS5003;74353;51.208;0.304;2024-01-27T05:35:30;22;22;
84223;PMS5003;74353;51.208;0.304;2024-01-27T05:37:56;15;15;
84223;PMS5003;74353;51.208;0.304;2024-01-27T05:40:21;18;15;
84223;PMS5003;74353;51.208;0.304;2024-01-27T05:42:47;14;14;
84223;PMS5003;74353;51.208;0.304;2024-01-27T05:45:12;25;23;
84223;PMS5003;74353;51.208;0.304;2024-01-27T05:47:37;25;23;
84223;PMS5003;74353;51.208;0.304;2024-01-27T05:50:07;18;18;
84223;PMS5003;74353;51.208;0.304;2024-01-27T05:52:33;18;18;
84223;PMS5003;74353;51.208;0.304;2024-01-27T05:54:58;15;12;
84223;PMS5003;74353;51.208;0.304;2024-01-27T05:57:23;23;22;
84223;PMS5003;74353;51.208;0.304;2024-01-27T05:59:51;17;17;
84223;PMS5003;74353;51.208;0.304;2024-01-27T06:02:17;30;30;
84223;PMS5003;74353;51.208;0.304;2024-01-27T06:04:44;34;34;
84223;PMS5003;74353;51.208;0.304;2024-01-27T06:07:10;19;19;
84223;PMS5003;74353;51.208;0.304;2024-01-27T06:09:37;17;14;
84223;PMS5003;74353;51.208;0.304;2024-01-27T06:12:07;20;20;
84223;PMS5003;74353;51.208;0.304;2024-01-27T06:14:32;42;18;
84223;PMS5003;74353;51.208;0.304;2024-01-27T06:16:58;25;25;
84223;PMS5003;74353;51.208;0.304;2024-01-27T06:19:25;31;14;
84223;PMS5003;74353;51.208;0.304;2024-01-27T06:21:50;13;10;
84223;PMS5003;74353;51.208;0.304;2024-01-27T06:24:16;25;23;
84223;PMS5003;74353;51.208;0.304;2024-01-27T06:26:45;13;13;
84223;PMS5003;74353;51.208;0.304;2024-01-27T06:29:12;21;21;
84223;PMS5003;74353;51.208;0.304;2024-01-27T06:31:42;11;9;
84223;PMS5003;74353;51.208;0.304;2024-01-27T06:34:07;26;25;
84223;PMS5003;74353;51.208;0.304;2024-01-27T06:36:35;11;11;
84223;PMS5003;74353;51.208;0.304;2024-01-27T06:39:05;22;16;
84223;PMS5003;74353;51.208;0.304;2024-01-27T06:41:32;16;16;
84223;PMS5003;74353;51.208;0.304;2024-01-27T06:44:02;21;21;
84223;PMS5003;74353;51.208;0.304;2024-01-27T06:46:29;31;25;
84223;PMS5003;74353;51.208;0.304;2024-01-27T06:48:56;15;15;
84223;PMS5003;74353;51.208;0.304;2024-01-27T06:51:24;22;22;
84223;PMS5003;74353;51.208;0.304;2024-01-27T06:53:50;24;24;
84223;PMS5003;74353;51.208;0.304;2024-01-27T06:56:18;15;15;
84223;PMS5003;74353;51.208;0.304;2024-01-27T06:58:45;23;23;
84223;PMS5003;74353;51.208;0.304;2024-01-27T07:01:12;20;20;
84223;PMS5003;74353;51.208;0.304;2024-01-27T07:03:38;22;22;
84223;PMS5003;74353;51.208;0.304;2024-01-27T07:06:04;25;19;
84223;PMS5003;74353;51.208;0.304;2024-01-27T07:08:29;33;27;
84223;PMS5003;74353;51.208;0.304;2024-01-27T07:10:56;21;21;
84223;PMS5003;74353;51.208;0.304;2024-01-27T07:13:22;20;20;
84223;PMS5003;74353;51.208;0.304;2024-01-27T07:15:49;22;19;
84223;PMS5003;74353;51.208;0.304;2024-01-27T07:18:19;27;27;
84223;PMS5003;74353;51.208;0.304;2024-01-27T07:20:45;29;29;
84223;PMS5003;74353;51.208;0.304;2024-01-27T07:23:11;35;15;
84223;PMS5003;74353;51.208;0.304;2024-01-27T07:25:39;36;33;
84223;PMS5003;74353;51.208;0.304;2024-01-27T07:28:06;10;10;
84223;PMS5003;74353;51.208;0.304;2024-01-27T07:30:32;21;21;
84223;PMS5003;74353;51.208;0.304;2024-01-27T07:32:59;9;9;
84223;PMS5003;74353;51.208;0.304;2024-01-27T07:35:26;28;28;
84223;PMS5003;74353;51.208;0.304;2024-01-27T07:37:52;21;21;
84223;PMS5003;74353;51.208;0.304;2024-01-27T07:40:18;22;22;
84223;PMS5003;74353;51.208;0.304;2024-01-27T07:42:45;23;23;
84223;PMS5003;74353;51.208;0.304;2024-01-27T07:45:10;17;17;
84223;PMS5003;74353;51.208;0.304;2024-01-27T07:47:37;25;25;
84223;PMS5003;74353;51.208;0.304;2024-01-27T07:50:05;21;21;
84223;PMS5003;74353;51.208;0.304;2024-01-27T07:52:30;27;26;
84223;PMS5003;74353;51.208;0.304;2024-01-27T07:54:55;28;27;
84223;PMS5003;74353;51.208;0.304;2024-01-27T07:57:21;33;31;
84223;PMS5003;74353;51.208;0.304;2024-01-27T07:59:49;21;21;
84223;PMS5003;74353;51.208;0.304;2024-01-27T08:02:15;32;28;
84223;PMS5003;74353;51.208;0.304;2024-01-27T08:04:42;30;28;
84223;PMS5003;74353;51.208;0.304;2024-01-27T08:07:08;24;24;
84223;PMS5003;74353;51.208;0.304;2024-01-27T08:09:33;17;17;
84223;PMS5003;74353;51.208;0.304;2024-01-27T08:11:59;23;23;
84223;PMS5003;74353;51.208;0.304;2024-01-27T08:14:27;35;29;
84223;PMS5003;74353;51.208;0.304;2024-01-27T08:16:52;19;15;
84223;PMS5003;74353;51.208;0.304;2024-01-27T08:19:20;28;22;
84223;PMS5003;74353;51.208;0.304;2024-01-27T08:21:48;22;22;
84223;PMS5003;74353;51.208;0.304;2024-01-27T08:24:14;16;16;
84223;PMS5003;74353;51.208;0.304;2024-01-27T08:26:39;19;18;
84223;PMS5003;74353;51.208;0.304;2024-01-27T08:29:05;28;26;
84223;PMS5003;74353;51.208;0.304;2024-01-27T08:31:31;24;24;
84223;PMS5003;74353;51.208;0.304;2024-01-27T08:33:57;26;25;
84223;PMS5003;74353;51.208;0.304;2024-01-27T08:36:23;21;15;
84223;PMS5003;74353;51.208;0.304;2024-01-27T08:38:49;18;18;
84223;PMS5003;74353;51.208;0.304;2024-01-27T08:41:17;29;29;
84223;PMS5003;74353;51.208;0.304;2024-01-27T08:43:45;9;9;
84223;PMS5003;74353;51.208;0.304;2024-01-27T08:46:10;39;32;
84223;PMS5003;74353;51.208;0.304;2024-01-27T08:48:36;25;22;
84223;PMS5003;74353;51.208;0.304;2024-01-27T08:51:03;22;19;
84223;PMS5003;74353;51.208;0.304;2024-01-27T08:53:28;19;18;
84223;PMS5003;74353;51.208;0.304;2024-01-27T08:55:54;25;25;
84223;PMS5003;74353;51.208;0.304;2024-01-27T08:58:22;19;19;
84223;PMS5003;74353;51.208;0.304;2024-01-27T09:00:50;22;15;
84223;PMS5003;74353;51.208;0.304;2024-01-27T09:03:16;16;16;
84223;PMS5003;74353;51.208;0.304;2024-01-27T09:05:42;26;26;
84223;PMS5003;74353;51.208;0.304;2024-01-27T09:08:08;33;18;
84223;PMS5003;74353;51.208;0.304;2024-01-27T09:10:39;31;31;
84223;PMS5003;74353;51.208;0.304;2024-01-27T09:13:07;14;11;
84223;PMS5003;74353;51.208;0.304;2024-01-27T09:15:32;32;31;
84223;PMS5003;74353;51.208;0.304;2024-01-27T09:17:58;26;11;
84223;PMS5003;74353;51.208;0.304;2024-01-27T09:20:24;24;22;
84223;PMS5003;74353;51.208;0.304;2024-01-27T09:22:49;25;23;
84223;PMS5003;74353;51.208;0.304;2024-01-27T09:25:21;24;18;
84223;PMS5003;74353;51.208;0.304;2024-01-27T09:27:48;20;20;
84223;PMS5003;74353;51.208;0.304;2024-01-27T09:30:14;18;18;
84223;PMS5003;74353;51.208;0.304;2024-01-27T09:32:41;13;13;
84223;PMS5003;74353;51.208;0.304;2024-01-27T09:35:06;28;28;
84223;PMS5003;74353;51.208;0.304;2024-01-27T09:37:33;21;18;
84223;PMS5003;74353;51.208;0.304;2024-01-27T09:40:00;30;27;
84223;PMS5003;74353;51.208;0.304;2024-01-27T09:42:26;23;17;
84223;PMS5003;74353;51.208;0.304;2024-01-27T09:44:53;34;20;
84223;PMS5003;74353;51.208;0.304;2024-01-27T09:47:21;12;4;
84223;PMS5003;74353;51.208;0.304;2024-01-27T09:49:47;33;33;
84223;PMS5003;74353;51.208;0.304;2024-01-27T09:52:13;28;20;
84223;PMS5003;74353;51.208;0.304;2024-01-27T09:54:39;12;12;
84223;PMS5003;74353;51.208;0.304;2024-01-27T09:57:04;34;26;
84223;PMS5003;74353;51.208;0.304;2024-01-27T09:59:29;26;26;
84223;PMS5003;74353;51.208;0.304;2024-01-27T10:01:57;19;19;
84223;PMS5003;74353;51.208;0.304;2024-01-27T10:04:22;17;17;
84223;PMS5003;74353;51.208;0.304;2024-01-27T10:06:49;32;27;
84223;PMS5003;74353;51.208;0.304;2024-01-27T10:09:14;24;19;
84223;PMS5003;74353;51.208;0.304;2024-01-27T10:11:45;24;24;
84223;PMS5003;74353;51.208;0.304;2024-01-27T10:14:10;14;14;
84223;PMS5003;74353;51.208;0.304;2024-01-27T10:16:40;18;15;
84223;PMS5003;74353;51.208;0.304;2024-01-27T10:19:03;24;24;
84223;PMS5003;74353;51.208;0.304;2024-01-27T10:21:28;26;24;
84223;PMS5003;74353;51.208;0.304;2024-01-27T10:23:54;23;22;
84223;PMS5003;74353;51.208;0.304;2024-01-27T10:26:21;10;10;
84223;PMS5003;74353;51.208;0.304;2024-01-27T10:28:52;22;22;
84223;PMS5003;74353;51.208;0.304;2024-01-27T10:31:14;19;17;
84223;PMS5003;74353;51.208;0.304;2024-01-27T10:36:10;17;17;
84223;PMS5003;74353;51.208;0.304;2024-01-27T10:38:36;26;26;
84223;PMS5003;74353;51.208;0.304;2024-01-27T10:41:07;14;14;
84223;PMS5003;74353;51.208;0.304;2024-01-27T10:43:33;19;13;
84223;PMS5003;74353;51.208;0.304;2024-01-27T10:45:58;25;24;
84223;PMS5003;74353;51.208;0.304;2024-01-27T10:48:24;27;23;
84223;PMS5003;74353;51.208;0.304;2024-01-27T10:50:50;22;22;
84223;PMS5003;74353;51.208;0.304;2024-01-27T10:53:19;23;21;
84223;PMS5003;74353;51.208;0.304;2024-01-27T10:55:43;15;15;
84223;PMS5003;74353;51.208;0.304;2024-01-27T10:58:09;33;30;
84223;PMS5003;74353;51.208;0.304;2024-01-27T11:00:34;28;26;
84223;PMS5003;74353;51.208;0.304;2024-01-27T11:03:01;23;23;
84223;PMS5003;74353;51.208;0.304;2024-01-27T11:05:27;29;21;
84223;PMS5003;74353;51.208;0.304;2024-01-27T11:07:52;16;16;
84223;PMS5003;74353;51.208;0.304;2024-01-27T11:10:19;22;16;
84223;PMS5003;74353;51.208;0.304;2024-01-27T11:12:46;27;24;
84223;PMS5003;74353;51.208;0.304;2024-01-27T11:15:12;27;19;
84223;PMS5003;74353;51.208;0.304;2024-01-27T11:17:39;18;18;
84223;PMS5003;74353;51.208;0.304;2024-01-27T11:20:07;37;25;
84223;PMS5003;74353;51.208;0.304;2024-01-27T11:22:33;28;28;
84223;PMS5003;74353;51.208;0.304;2024-01-27T11:25:06;34;26;
84223;PMS5003;74353;51.208;0.304;2024-01-27T11:27:26;21;21;
84223;PMS5003;74353;51.208;0.304;2024-01-27T11:29:53;20;20;
84223;PMS5003;74353;51.208;0.304;2024-01-27T11:32:20;21;21;
84223;PMS5003;74353;51.208;0.304;2024-01-27T11:34:46;17;17;
84223;PMS5003;74353;51.208;0.304;2024-01-27T11:37:14;23;23;
84223;PMS5003;74353;51.208;0.304;2024-01-27T11:39:41;13;13;
84223;PMS5003;74353;51.208;0.304;2024-01-27T11:42:07;19;19;
84223;PMS5003;74353;51.208;0.304;2024-01-27T11:44:35;16;16;
84223;PMS5003;74353;51.208;0.304;2024-01-27T11:47:00;42;35;
84223;PMS5003;74353;51.208;0.304;2024-01-27T11:49:28;29;29;
84223;PMS5003;74353;51.208;0.304;2024-01-27T11:51:54;34;26;
84223;PMS5003;74353;51.208;0.304;2024-01-27T11:54:21;16;16;
84223;PMS5003;74353;51.208;0.304;2024-01-27T11:56:46;42;28;
84223;PMS5003;74353;51.208;0.304;2024-01-27T11:59:11;20;19;
84223;PMS5003;74353;51.208;0.304;2024-01-27T12:01:38;27;24;
84223;PMS5003;74353;51.208;0.304;2024-01-27T12:04:07;27;27;
84223;PMS5003;74353;51.208;0.304;2024-01-27T12:06:32;22;22;
84223;PMS5003;74353;51.208;0.304;2024-01-27T12:08:57;14;14;
84223;PMS5003;74353;51.208;0.304;2024-01-27T12:11:23;37;32;
84223;PMS5003;74353;51.208;0.304;2024-01-27T12:13:49;35;35;
84223;PMS5003;74353;51.208;0.304;2024-01-27T12:16:14;23;23;
84223;PMS5003;74353;51.208;0.304;2024-01-27T12:18:41;25;25;
84223;PMS5003;74353;51.208;0.304;2024-01-27T12:21:06;13;13;
84223;PMS5003;74353;51.208;0.304;2024-01-27T12:23:33;28;28;
84223;PMS5003;74353;51.208;0.304;2024-01-27T12:26:04;24;24;
84223;PMS5003;74353;51.208;0.304;2024-01-27T12:28:30;31;24;
84223;PMS5003;74353;51.208;0.304;2024-01-27T12:30:56;18;18;
84223;PMS5003;74353;51.208;0.304;2024-01-27T12:33:22;35;29;
84223;PMS5003;74353;51.208;0.304;2024-01-27T12:35:47;30;30;
84223;PMS5003;74353;51.208;0.304;2024-01-27T12:38:13;30;30;
84223;PMS5003;74353;51.208;0.304;2024-01-27T12:40:38;32;32;
84223;PMS5003;74353;51.208;0.304;2024-01-27T12:43:04;16;16;
84223;PMS5003;74353;51.208;0.304;2024-01-27T12:45:31;23;23;
84223;PMS5003;74353;51.208;0.304;2024-01-27T12:47:57;29;29;
84223;PMS5003;74353;51.208;0.304;2024-01-27T12:50:23;28;28;
84223;PMS5003;74353;51.208;0.304;2024-01-27T12:52:49;36;36;
84223;PMS5003;74353;51.208;0.304;2024-01-27T12:55:16;44;44;
84223;PMS5003;74353;51.208;0.304;2024-01-27T12:57:43;24;24;
84223;PMS5003;74353;51.208;0.304;2024-01-27T13:00:09;7;7;
84223;PMS5003;74353;51.208;0.304;2024-01-27T13:02:36;8;8;
84223;PMS5003;74353;51.208;0.304;2024-01-27T13:05:01;10;7;
84223;PMS5003;74353;51.208;0.304;2024-01-27T13:07:27;9;6;
84223;PMS5003;74353;51.208;0.304;2024-01-27T13:09:52;9;7;
84223;PMS5003;74353;51.208;0.304;2024-01-27T13:12:18;6;6;
84223;PMS5003;74353;51.208;0.304;2024-01-27T13:14:46;15;8;
84223;PMS5003;74353;51.208;0.304;2024-01-27T13:17:13;1;1;
84223;PMS5003;74353;51.208;0.304;2024-01-27T13:19:38;7;7;
84223;PMS5003;74353;51.208;0.304;2024-01-27T13:22:06;5;5;
84223;PMS5003;74353;51.208;0.304;2024-01-27T13:24:32;11;11;
84223;PMS5003;74353;51.208;0.304;2024-01-27T13:27:00;6;6;
84223;PMS5003;74353;51.208;0.304;2024-01-27T13:29:26;3;3;
84223;PMS5003;74353;51.208;0.304;2024-01-27T13:31:52;5;5;
84223;PMS5003;74353;51.208;0.304;2024-01-27T13:34:17;4;4;
84223;PMS5003;74353;51.208;0.304;2024-01-27T13:36:43;8;4;
84223;PMS5003;74353;51.208;0.304;2024-01-27T13:39:09;6;6;
84223;PMS5003;74353;51.208;0.304;2024-01-27T13:41:34;5;2;
84223;PMS5003;74353;51.208;0.304;2024-01-27T13:44:06;4;4;
84223;PMS5003;74353;51.208;0.304;2024-01-27T13:46:32;7;7;
84223;PMS5003;74353;51.208;0.304;2024-01-27T13:48:59;2;2;
84223;PMS5003;74353;51.208;0.304;2024-01-27T13:51:26;6;3;
84223;PMS5003;74353;51.208;0.304;2024-01-27T13:53:52;2;2;
84223;PMS5003;74353;51.208;0.304;2024-01-27T13:56:18;0;0;
84223;PMS5003;74353;51.208;0.304;2024-01-27T13:58:44;3;3;
84223;PMS5003;74353;51.208;0.304;2024-01-27T14:01:09;7;5;
84223;PMS5003;74353;51.208;0.304;2024-01-27T14:03:36;2;2;
84223;PMS5003;74353;51.208;0.304;2024-01-27T14:06:03;2;2;
84223;PMS5003;74353;51.208;0.304;2024-01-27T14:08:28;4;4;
84223;PMS5003;74353;51.208;0.304;2024-01-27T14:10:55;2;2;
84223;PMS5003;74353;51.208;0.304;2024-01-27T14:13:21;4;4;
84223;PMS5003;74353;51.208;0.304;2024-01-27T14:15:49;1;1;
84223;PMS5003;74353;51.208;0.304;2024-01-27T14:18:16;2;2;
84223;PMS5003;74353;51.208;0.304;2024-01-27T14:20:44;6;6;
84223;PMS5003;74353;51.208;0.304;2024-01-27T14:23:09;13;5;
84223;PMS5003;74353;51.208;0.304;2024-01-27T14:25:35;6;4;
84223;PMS5003;74353;51.208;0.304;2024-01-27T14:28:02;5;5;
84223;PMS5003;74353;51.208;0.304;2024-01-27T14:32:53;1;1;
84223;PMS5003;74353;51.208;0.304;2024-01-27T14:35:20;2;2;
84223;PMS5003;74353;51.208;0.304;2024-01-27T14:37:46;2;2;
84223;PMS5003;74353;51.208;0.304;2024-01-27T14:40:13;5;5;
84223;PMS5003;74353;51.208;0.304;2024-01-27T14:42:38;4;4;
84223;PMS5003;74353;51.208;0.304;2024-01-27T14:45:07;6;6;
84223;PMS5003;74353;51.208;0.304;2024-01-27T14:47:34;8;5;
84223;PMS5003;74353;51.208;0.304;2024-01-27T14:50:00;2;2;
84223;PMS5003;74353;51.208;0.304;2024-01-27T14:52:27;3;3;
84223;PMS5003;74353;51.208;0.304;2024-01-27T14:54:53;5;5;
84223;PMS5003;74353;51.208;0.304;2024-01-27T14:57:19;7;7;
84223;PMS5003;74353;51.208;0.304;2024-01-27T14:59:44;3;3;
84223;PMS5003;74353;51.208;0.304;2024-01-27T15:02:12;0;0;
84223;PMS5003;74353;51.208;0.304;2024-01-27T15:04:39;3;3;
84223;PMS5003;74353;51.208;0.304;2024-01-27T15:07:04;6;5;
84223;PMS5003;74353;51.208;0.304;2024-01-27T15:09:31;3;3;
84223;PMS5003;74353;51.208;0.304;2024-01-27T15:11:55;3;3;
84223;PMS5003;74353;51.208;0.304;2024-01-27T15:14:21;12;6;
84223;PMS5003;74353;51.208;0.304;2024-01-27T15:16:48;12;6;
84223;PMS5003;74353;51.208;0.304;2024-01-27T15:19:16;2;2;
84223;PMS5003;74353;51.208;0.304;2024-01-27T15:21:46;5;5;
84223;PMS5003;74353;51.208;0.304;2024-01-27T15:24:17;3;3;
84223;PMS5003;74353;51.208;0.304;2024-01-27T15:26:41;1;1;
84223;PMS5003;74353;51.208;0.304;2024-01-27T15:29:06;3;3;
84223;PMS5003;74353;51.208;0.304;2024-01-27T15:31:31;3;3;
84223;PMS5003;74353;51.208;0.304;2024-01-27T15:33:58;3;3;
84223;PMS5003;74353;51.208;0.304;2024-01-27T15:36:24;1;1;
84223;PMS5003;74353;51.208;0.304;2024-01-27T15:38:50;3;3;
84223;PMS5003;74353;51.208;0.304;2024-01-27T15:41:17;4;4;
84223;PMS5003;74353;51.208;0.304;2024-01-27T15:43:45;6;6;
84223;PMS5003;74353;51.208;0.304;2024-01-27T15:46:14;1;1;
84223;PMS5003;74353;51.208;0.304;2024-01-27T15:48:39;4;4;
84223;PMS5003;74353;51.208;0.304;2024-01-27T15:51:05;7;5;
84223;PMS5003;74353;51.208;0.304;2024-01-27T15:53:30;3;2;
84223;PMS5003;74353;51.208;0.304;2024-01-27T15:55:56;0;0;
84223;PMS5003;74353;51.208;0.304;2024-01-27T15:58:22;4;4;
84223;PMS5003;74353;51.208;0.304;2024-01-27T16:00:49;3;3;
84223;PMS5003;74353;51.208;0.304;2024-01-27T16:03:14;3;1;
84223;PMS5003;74353;51.208;0.304;2024-01-27T16:05:39;1;1;
84223;PMS5003;74353;51.208;0.304;2024-01-27T16:08:05;2;2;
84223;PMS5003;74353;51.208;0.304;2024-01-27T16:10:33;2;2;
84223;PMS5003;74353;51.208;0.304;2024-01-27T16:12:59;1;1;
84223;PMS5003;74353;51.208;0.304;2024-01-27T16:15:23;6;3;
84223;PMS5003;74353;51.208;0.304;2024-01-27T16:17:51;0;0;
84223;PMS5003;74353;51.208;0.304;2024-01-27T16:20:19;3;3;
84223;PMS5003;74353;51.208;0.304;2024-01-27T16:22:46;1;1;
84223;PMS5003;74353;51.208;0.304;2024-01-27T16:25:13;4;4;